EJU62AB EGPF-EHAM
Flight info
| Callsign | EJU62AB |
|---|---|
| Flight time | 1h 17m |
| Altitude | 35000 |
| Route | NORBO Y96 HAVEN DCT ERKIT N110 DOLAS L603 LAMSO |
| Aircraft | A319/M-SDE2E3FGIJ1RWXYZ/LB1 |
Departure
| Time | 2026-05-01 12:16 |
|---|---|
| Airport | Glasgow Airport (EGPF) |
Arrival
| Time | 2026-05-01 13:33 |
|---|---|
| Airport | Amsterdam Airport Schiphol (EHAM) |
| Time | Latitude | Longitude | Altitude | Speed | Heading |
|---|---|---|---|---|---|
| 2026-05-01 11:47 | 55.86563 | -4.43875 | 29 ft | 0 kts | 62° |
| 2026-05-01 12:07 | 55.86561 | -4.43881 | 31 ft | 2 kts | 62° |
| 2026-05-01 12:08 | 55.86552 | -4.43910 | 31 ft | 3 kts | 58° |
| 2026-05-01 12:08 | 55.86541 | -4.43940 | 30 ft | 3 kts | 52° |
| 2026-05-01 12:08 | 55.86528 | -4.43967 | 30 ft | 3 kts | 38° |
| 2026-05-01 12:08 | 55.86512 | -4.43984 | 31 ft | 3 kts | 4° |
| 2026-05-01 12:09 | 55.86500 | -4.43982 | 30 ft | 1 kts | 332° |
| 2026-05-01 12:09 | 55.86497 | -4.43978 | 30 ft | 0 kts | 332° |
| 2026-05-01 12:11 | 55.86508 | -4.43988 | 31 ft | 4 kts | 333° |
| 2026-05-01 12:11 | 55.86540 | -4.44039 | 30 ft | 8 kts | 302° |
| 2026-05-01 12:12 | 55.86521 | -4.44142 | 31 ft | 10 kts | 230° |
| 2026-05-01 12:12 | 55.86478 | -4.44225 | 33 ft | 9 kts | 225° |
| 2026-05-01 12:12 | 55.86428 | -4.44316 | 32 ft | 11 kts | 226° |
| 2026-05-01 12:12 | 55.86374 | -4.44415 | 32 ft | 11 kts | 226° |
| 2026-05-01 12:13 | 55.86316 | -4.44524 | 30 ft | 14 kts | 226° |
| 2026-05-01 12:13 | 55.86266 | -4.44618 | 29 ft | 9 kts | 230° |
| 2026-05-01 12:13 | 55.86260 | -4.44722 | 30 ft | 9 kts | 297° |
| 2026-05-01 12:13 | 55.86299 | -4.44795 | 32 ft | 7 kts | 315° |
| 2026-05-01 12:14 | 55.86333 | -4.44842 | 33 ft | 6 kts | 333° |
| 2026-05-01 12:14 | 55.86381 | -4.44833 | 31 ft | 8 kts | 28° |
| 2026-05-01 12:14 | 55.86390 | -4.44821 | 32 ft | 0 kts | 38° |
| 2026-05-01 12:14 | 55.86390 | -4.44820 | 32 ft | 1 kts | 38° |
| 2026-05-01 12:15 | 55.86481 | -4.44659 | 36 ft | 52 kts | 46° |
| 2026-05-01 12:15 | 55.86726 | -4.44201 | 33 ft | 100 kts | 46° |
| 2026-05-01 12:15 | 55.87351 | -4.43031 | 29 ft | 158 kts | 46° |
| 2026-05-01 12:15 | 55.88162 | -4.41486 | 373 ft | 179 kts | 47° |
| 2026-05-01 12:16 | 55.89023 | -4.39845 | 1065 ft | 180 kts | 47° |
| 2026-05-01 12:16 | 55.89915 | -4.38181 | 1644 ft | 194 kts | 49° |
| 2026-05-01 12:16 | 55.90907 | -4.36337 | 2035 ft | 218 kts | 48° |
| 2026-05-01 12:16 | 55.92007 | -4.34295 | 2460 ft | 243 kts | 48° |
| 2026-05-01 12:17 | 55.93279 | -4.32099 | 3011 ft | 265 kts | 37° |
| 2026-05-01 12:17 | 55.95053 | -4.31044 | 3856 ft | 277 kts | 359° |
| 2026-05-01 12:17 | 55.96886 | -4.31972 | 4834 ft | 277 kts | 323° |
| 2026-05-01 12:17 | 55.98114 | -4.34530 | 5808 ft | 272 kts | 289° |
| 2026-05-01 12:18 | 55.98454 | -4.37797 | 6822 ft | 267 kts | 263° |
| 2026-05-01 12:18 | 55.98003 | -4.40946 | 7796 ft | 265 kts | 243° |
| 2026-05-01 12:18 | 55.97230 | -4.43956 | 8774 ft | 267 kts | 242° |
| 2026-05-01 12:18 | 55.96424 | -4.46974 | 9691 ft | 271 kts | 241° |
| 2026-05-01 12:19 | 55.95565 | -4.49989 | 10542 ft | 272 kts | 234° |
| 2026-05-01 12:19 | 55.94321 | -4.52585 | 11152 ft | 284 kts | 223° |
| 2026-05-01 12:19 | 55.92883 | -4.55182 | 11525 ft | 303 kts | 223° |
| 2026-05-01 12:19 | 55.91392 | -4.57846 | 12199 ft | 309 kts | 223° |
| 2026-05-01 12:20 | 55.89865 | -4.60579 | 12959 ft | 313 kts | 223° |
| 2026-05-01 12:20 | 55.88313 | -4.63366 | 13726 ft | 318 kts | 223° |
| 2026-05-01 12:20 | 55.86745 | -4.66180 | 14428 ft | 322 kts | 222° |
| 2026-05-01 12:20 | 55.84955 | -4.68592 | 15071 ft | 323 kts | 211° |
| 2026-05-01 12:21 | 55.83048 | -4.70743 | 15730 ft | 326 kts | 210° |
| 2026-05-01 12:21 | 55.81102 | -4.72868 | 16389 ft | 329 kts | 207° |
| 2026-05-01 12:21 | 55.79006 | -4.74392 | 17061 ft | 331 kts | 195° |
| 2026-05-01 12:21 | 55.76694 | -4.75084 | 17763 ft | 335 kts | 184° |
| 2026-05-01 12:22 | 55.74378 | -4.75226 | 18425 ft | 339 kts | 182° |
| 2026-05-01 12:22 | 55.72004 | -4.75376 | 19004 ft | 342 kts | 183° |
| 2026-05-01 12:22 | 55.69620 | -4.75536 | 19609 ft | 344 kts | 183° |
| 2026-05-01 12:22 | 55.67216 | -4.75704 | 20209 ft | 346 kts | 182° |
| 2026-05-01 12:23 | 55.64798 | -4.75660 | 20805 ft | 350 kts | 173° |
| 2026-05-01 12:23 | 55.62463 | -4.74310 | 21394 ft | 357 kts | 154° |
| 2026-05-01 12:23 | 55.60508 | -4.71525 | 21974 ft | 368 kts | 134° |
| 2026-05-01 12:23 | 55.59221 | -4.67593 | 22543 ft | 382 kts | 114° |
| 2026-05-01 12:24 | 55.58716 | -4.62897 | 23100 ft | 393 kts | 102° |
| 2026-05-01 12:24 | 55.58405 | -4.58060 | 23674 ft | 396 kts | 102° |
| 2026-05-01 12:24 | 55.58101 | -4.53186 | 24128 ft | 399 kts | 102° |
| 2026-05-01 12:24 | 55.57800 | -4.48348 | 24561 ft | 402 kts | 102° |
| 2026-05-01 12:25 | 55.57487 | -4.43419 | 24971 ft | 405 kts | 102° |
| 2026-05-01 12:25 | 55.56831 | -4.33435 | 25806 ft | 411 kts | 102° |
| 2026-05-01 12:25 | 55.56494 | -4.28394 | 26237 ft | 414 kts | 102° |
| 2026-05-01 12:26 | 55.56155 | -4.23310 | 26662 ft | 417 kts | 101° |
| 2026-05-01 12:26 | 55.55464 | -4.13069 | 27463 ft | 422 kts | 101° |
| 2026-05-01 12:26 | 55.55109 | -4.07896 | 27855 ft | 425 kts | 101° |
| 2026-05-01 12:27 | 55.54754 | -4.02758 | 28240 ft | 428 kts | 101° |
| 2026-05-01 12:27 | 55.54024 | -3.92246 | 29054 ft | 434 kts | 101° |
| 2026-05-01 12:28 | 55.53273 | -3.81579 | 29838 ft | 439 kts | 101° |
| 2026-05-01 12:28 | 55.52891 | -3.76200 | 30226 ft | 442 kts | 101° |
| 2026-05-01 12:28 | 55.52119 | -3.65366 | 30854 ft | 447 kts | 101° |
| 2026-05-01 12:29 | 55.51732 | -3.59982 | 31166 ft | 449 kts | 101° |
| 2026-05-01 12:29 | 55.51334 | -3.54512 | 31464 ft | 450 kts | 101° |
| 2026-05-01 12:29 | 55.50524 | -3.43527 | 32224 ft | 450 kts | 101° |
| 2026-05-01 12:30 | 55.49690 | -3.32596 | 33065 ft | 447 kts | 102° |
| 2026-05-01 12:30 | 55.49188 | -3.27188 | 33482 ft | 446 kts | 103° |
| 2026-05-01 12:30 | 55.48615 | -3.21813 | 33895 ft | 445 kts | 104° |
| 2026-05-01 12:31 | 55.48010 | -3.16526 | 34286 ft | 444 kts | 104° |
| 2026-05-01 12:31 | 55.47393 | -3.11208 | 34669 ft | 442 kts | 104° |
| 2026-05-01 12:31 | 55.46614 | -3.05995 | 34993 ft | 439 kts | 112° |
| 2026-05-01 12:31 | 55.45392 | -3.01087 | 35096 ft | 433 kts | 122° |
| 2026-05-01 12:32 | 55.43751 | -2.96743 | 35116 ft | 420 kts | 134° |
| 2026-05-01 12:32 | 55.37312 | -2.86532 | 35118 ft | 414 kts | 142° |
| 2026-05-01 12:33 | 55.32968 | -2.79964 | 35120 ft | 414 kts | 142° |
| 2026-05-01 12:33 | 55.28590 | -2.73381 | 35119 ft | 414 kts | 142° |
| 2026-05-01 12:34 | 55.24205 | -2.66803 | 35138 ft | 415 kts | 142° |
| 2026-05-01 12:34 | 55.19816 | -2.60221 | 35140 ft | 415 kts | 142° |
| 2026-05-01 12:35 | 55.15448 | -2.53702 | 35145 ft | 414 kts | 142° |
| 2026-05-01 12:35 | 55.11053 | -2.47160 | 35145 ft | 413 kts | 142° |
| 2026-05-01 12:36 | 55.06696 | -2.40695 | 35143 ft | 413 kts | 142° |
| 2026-05-01 12:36 | 55.02308 | -2.34204 | 35135 ft | 413 kts | 142° |
| 2026-05-01 12:37 | 54.97949 | -2.27771 | 35131 ft | 413 kts | 142° |
| 2026-05-01 12:37 | 54.93562 | -2.21307 | 35119 ft | 412 kts | 142° |
| 2026-05-01 12:38 | 54.89184 | -2.14886 | 35108 ft | 412 kts | 142° |
| 2026-05-01 12:38 | 54.84801 | -2.08464 | 35115 ft | 411 kts | 142° |
| 2026-05-01 12:39 | 54.80410 | -2.02061 | 35119 ft | 411 kts | 143° |
| 2026-05-01 12:39 | 54.76023 | -1.95702 | 35121 ft | 411 kts | 143° |
| 2026-05-01 12:40 | 54.71658 | -1.89380 | 35125 ft | 410 kts | 143° |
| 2026-05-01 12:40 | 54.67277 | -1.83033 | 35139 ft | 410 kts | 143° |
| 2026-05-01 12:41 | 54.62891 | -1.76701 | 35142 ft | 410 kts | 143° |
| 2026-05-01 12:41 | 54.58526 | -1.70431 | 35153 ft | 410 kts | 143° |
| 2026-05-01 12:42 | 54.54132 | -1.64135 | 35153 ft | 410 kts | 143° |
| 2026-05-01 12:42 | 54.49764 | -1.57904 | 35153 ft | 409 kts | 143° |
| 2026-05-01 12:43 | 54.45376 | -1.51654 | 35168 ft | 407 kts | 143° |
| 2026-05-01 12:43 | 54.41038 | -1.45479 | 35174 ft | 406 kts | 143° |
| 2026-05-01 12:44 | 54.36684 | -1.39304 | 35171 ft | 405 kts | 143° |
| 2026-05-01 12:45 | 54.27998 | -1.27062 | 35166 ft | 404 kts | 143° |
| 2026-05-01 12:45 | 54.23656 | -1.20953 | 35152 ft | 404 kts | 143° |
| 2026-05-01 12:46 | 54.19305 | -1.14866 | 35149 ft | 404 kts | 143° |
| 2026-05-01 12:46 | 54.14975 | -1.08820 | 35147 ft | 404 kts | 143° |
| 2026-05-01 12:47 | 54.10603 | -1.02722 | 35134 ft | 403 kts | 144° |
| 2026-05-01 12:47 | 54.06294 | -0.96731 | 35155 ft | 402 kts | 144° |
| 2026-05-01 12:48 | 54.01956 | -0.90727 | 35159 ft | 401 kts | 144° |
| 2026-05-01 12:48 | 53.97629 | -0.84756 | 35158 ft | 400 kts | 144° |
| 2026-05-01 12:49 | 53.93330 | -0.78836 | 35155 ft | 400 kts | 144° |
| 2026-05-01 12:49 | 53.89007 | -0.72889 | 35159 ft | 400 kts | 144° |
| 2026-05-01 12:50 | 53.84703 | -0.66995 | 35158 ft | 399 kts | 144° |
| 2026-05-01 12:50 | 53.80370 | -0.61073 | 35161 ft | 400 kts | 144° |
| 2026-05-01 12:51 | 53.76039 | -0.55174 | 35161 ft | 400 kts | 144° |
| 2026-05-01 12:52 | 53.69537 | -0.46359 | 35153 ft | 400 kts | 144° |
| 2026-05-01 12:52 | 53.63021 | -0.37555 | 35152 ft | 400 kts | 144° |
| 2026-05-01 12:53 | 53.56755 | -0.28252 | 35153 ft | 405 kts | 131° |
| 2026-05-01 12:54 | 53.53378 | -0.20710 | 35151 ft | 406 kts | 130° |
| 2026-05-01 12:54 | 53.48262 | -0.09314 | 35153 ft | 406 kts | 131° |
| 2026-05-01 12:55 | 53.44872 | -0.01820 | 34759 ft | 405 kts | 131° |
| 2026-05-01 12:55 | 53.43169 | 0.01941 | 34437 ft | 403 kts | 131° |
| 2026-05-01 12:55 | 53.41475 | 0.05683 | 34248 ft | 402 kts | 131° |
| 2026-05-01 12:56 | 53.39779 | 0.09420 | 34042 ft | 402 kts | 131° |
| 2026-05-01 12:56 | 53.38078 | 0.13156 | 33822 ft | 402 kts | 131° |
| 2026-05-01 12:56 | 53.36400 | 0.16837 | 33605 ft | 402 kts | 131° |
| 2026-05-01 12:56 | 53.34698 | 0.20569 | 33389 ft | 403 kts | 131° |
| 2026-05-01 12:57 | 53.32996 | 0.24301 | 33169 ft | 403 kts | 131° |
| 2026-05-01 12:57 | 53.29576 | 0.31788 | 32741 ft | 404 kts | 131° |
| 2026-05-01 12:57 | 53.27887 | 0.35472 | 32532 ft | 404 kts | 131° |
| 2026-05-01 12:58 | 53.26172 | 0.39209 | 32326 ft | 405 kts | 131° |
| 2026-05-01 12:58 | 53.24466 | 0.42925 | 32113 ft | 399 kts | 132° |
| 2026-05-01 12:58 | 53.22796 | 0.46568 | 31895 ft | 388 kts | 132° |
| 2026-05-01 12:59 | 53.19554 | 0.53609 | 31474 ft | 379 kts | 132° |
| 2026-05-01 12:59 | 53.17942 | 0.57090 | 31280 ft | 379 kts | 132° |
| 2026-05-01 12:59 | 53.14724 | 0.64005 | 30877 ft | 376 kts | 132° |
| 2026-05-01 13:00 | 53.11540 | 0.70851 | 30484 ft | 374 kts | 132° |
| 2026-05-01 13:00 | 53.09948 | 0.74278 | 30290 ft | 373 kts | 132° |
| 2026-05-01 13:01 | 53.06772 | 0.81097 | 29841 ft | 371 kts | 132° |
| 2026-05-01 13:01 | 53.05208 | 0.84442 | 29620 ft | 369 kts | 132° |
| 2026-05-01 13:01 | 53.02056 | 0.91158 | 29169 ft | 366 kts | 133° |
| 2026-05-01 13:02 | 53.00491 | 0.94489 | 28950 ft | 365 kts | 132° |
| 2026-05-01 13:07 | 52.88266 | 1.81475 | 25211 ft | 398 kts | 106° |
| 2026-05-01 13:07 | 52.87723 | 1.85966 | 25221 ft | 398 kts | 106° |
| 2026-05-01 13:07 | 52.87175 | 1.90461 | 25220 ft | 397 kts | 106° |
| 2026-05-01 13:08 | 52.86624 | 1.94942 | 25222 ft | 397 kts | 106° |
| 2026-05-01 13:08 | 52.86068 | 1.99431 | 25219 ft | 397 kts | 106° |
| 2026-05-01 13:08 | 52.85515 | 2.03904 | 25216 ft | 397 kts | 106° |
| 2026-05-01 13:08 | 52.84961 | 2.08394 | 25227 ft | 398 kts | 106° |
| 2026-05-01 13:09 | 52.84412 | 2.12828 | 25228 ft | 398 kts | 106° |
| 2026-05-01 13:09 | 52.83852 | 2.17321 | 25225 ft | 398 kts | 106° |
| 2026-05-01 13:09 | 52.83289 | 2.21825 | 25232 ft | 398 kts | 106° |
| 2026-05-01 13:09 | 52.82725 | 2.26312 | 25231 ft | 398 kts | 106° |
| 2026-05-01 13:10 | 52.82163 | 2.30752 | 25228 ft | 398 kts | 106° |
| 2026-05-01 13:10 | 52.81594 | 2.35253 | 25231 ft | 398 kts | 106° |
| 2026-05-01 13:10 | 52.81027 | 2.39730 | 25231 ft | 398 kts | 106° |
| 2026-05-01 13:10 | 52.80457 | 2.44213 | 25240 ft | 398 kts | 106° |
| 2026-05-01 13:11 | 52.79892 | 2.48638 | 25240 ft | 398 kts | 106° |
| 2026-05-01 13:11 | 52.79318 | 2.53129 | 25224 ft | 398 kts | 106° |
| 2026-05-01 13:11 | 52.78743 | 2.57610 | 25240 ft | 399 kts | 106° |
| 2026-05-01 13:11 | 52.78166 | 2.62100 | 24913 ft | 396 kts | 106° |
| 2026-05-01 13:12 | 52.77605 | 2.66471 | 24418 ft | 393 kts | 106° |
| 2026-05-01 13:12 | 52.77035 | 2.70877 | 23943 ft | 390 kts | 106° |
| 2026-05-01 13:12 | 52.76467 | 2.75249 | 23446 ft | 388 kts | 106° |
| 2026-05-01 13:12 | 52.75900 | 2.79600 | 23214 ft | 387 kts | 106° |
| 2026-05-01 13:13 | 52.75331 | 2.83958 | 23247 ft | 387 kts | 106° |
| 2026-05-01 13:13 | 52.74757 | 2.88306 | 23244 ft | 388 kts | 106° |
| 2026-05-01 13:13 | 52.74189 | 2.92611 | 23244 ft | 388 kts | 106° |
| 2026-05-01 13:13 | 52.73608 | 2.96962 | 23244 ft | 387 kts | 108° |
| 2026-05-01 13:14 | 52.72699 | 3.01106 | 23128 ft | 379 kts | 120° |
| 2026-05-01 13:14 | 52.71427 | 3.04886 | 22576 ft | 375 kts | 123° |
| 2026-05-01 13:14 | 52.70124 | 3.08610 | 22031 ft | 374 kts | 123° |
| 2026-05-01 13:14 | 52.68809 | 3.12322 | 21361 ft | 373 kts | 123° |
| 2026-05-01 13:15 | 52.67515 | 3.15967 | 20744 ft | 365 kts | 123° |
| 2026-05-01 13:15 | 52.66264 | 3.19500 | 20134 ft | 356 kts | 123° |
| 2026-05-01 13:15 | 52.65032 | 3.22990 | 19528 ft | 349 kts | 123° |
| 2026-05-01 13:15 | 52.63822 | 3.26418 | 18932 ft | 342 kts | 123° |
| 2026-05-01 13:16 | 52.62639 | 3.29770 | 18327 ft | 335 kts | 124° |
| 2026-05-01 13:16 | 52.61476 | 3.33060 | 17666 ft | 330 kts | 124° |
| 2026-05-01 13:16 | 52.60328 | 3.36312 | 17015 ft | 325 kts | 124° |
| 2026-05-01 13:17 | 52.57973 | 3.46530 | 15158 ft | 321 kts | 104° |
| 2026-05-01 13:17 | 52.57594 | 3.50135 | 14545 ft | 318 kts | 104° |
| 2026-05-01 13:18 | 52.56851 | 3.57170 | 13297 ft | 311 kts | 104° |
| 2026-05-01 13:18 | 52.56479 | 3.60646 | 12656 ft | 307 kts | 104° |
| 2026-05-01 13:18 | 52.56108 | 3.64093 | 12024 ft | 304 kts | 104° |
| 2026-05-01 13:18 | 52.55963 | 3.67562 | 11405 ft | 305 kts | 94° |
| 2026-05-01 13:19 | 52.56017 | 3.71036 | 10842 ft | 301 kts | 92° |
| 2026-05-01 13:19 | 52.56087 | 3.74446 | 10432 ft | 294 kts | 92° |
| 2026-05-01 13:19 | 52.56222 | 3.81055 | 9589 ft | 290 kts | 92° |
| 2026-05-01 13:20 | 52.56286 | 3.84357 | 9139 ft | 288 kts | 92° |
| 2026-05-01 13:20 | 52.56344 | 3.87642 | 8705 ft | 286 kts | 92° |
| 2026-05-01 13:20 | 52.56397 | 3.90905 | 8278 ft | 285 kts | 92° |
| 2026-05-01 13:21 | 52.56489 | 3.97393 | 7438 ft | 282 kts | 92° |
| 2026-05-01 13:21 | 52.56529 | 4.00587 | 7254 ft | 279 kts | 93° |
| 2026-05-01 13:21 | 52.56561 | 4.03773 | 6869 ft | 278 kts | 96° |
| 2026-05-01 13:21 | 52.56478 | 4.06896 | 6451 ft | 276 kts | 97° |
| 2026-05-01 13:22 | 52.56376 | 4.10039 | 6049 ft | 274 kts | 97° |
| 2026-05-01 13:22 | 52.56274 | 4.13159 | 5644 ft | 272 kts | 97° |
| 2026-05-01 13:22 | 52.56178 | 4.16247 | 5258 ft | 269 kts | 97° |
| 2026-05-01 13:22 | 52.56087 | 4.19311 | 4857 ft | 267 kts | 97° |
| 2026-05-01 13:23 | 52.55993 | 4.22341 | 4458 ft | 264 kts | 97° |
| 2026-05-01 13:23 | 52.55893 | 4.25339 | 4247 ft | 261 kts | 97° |
| 2026-05-01 13:23 | 52.55793 | 4.28321 | 4251 ft | 262 kts | 97° |
| 2026-05-01 13:23 | 52.55690 | 4.31304 | 4215 ft | 261 kts | 97° |
| 2026-05-01 13:24 | 52.55585 | 4.34232 | 3822 ft | 258 kts | 97° |
| 2026-05-01 13:24 | 52.55476 | 4.37166 | 3409 ft | 256 kts | 97° |
| 2026-05-01 13:24 | 52.55358 | 4.40075 | 2996 ft | 254 kts | 97° |
| 2026-05-01 13:25 | 52.55086 | 4.45811 | 2158 ft | 250 kts | 97° |
| 2026-05-01 13:25 | 52.54943 | 4.48637 | 1984 ft | 244 kts | 97° |
| 2026-05-01 13:25 | 52.54812 | 4.51319 | 1985 ft | 226 kts | 97° |
| 2026-05-01 13:25 | 52.54695 | 4.53846 | 1986 ft | 219 kts | 98° |
| 2026-05-01 13:26 | 52.54582 | 4.56304 | 1989 ft | 219 kts | 97° |
| 2026-05-01 13:26 | 52.54462 | 4.58811 | 1989 ft | 220 kts | 98° |
| 2026-05-01 13:26 | 52.54348 | 4.61318 | 1983 ft | 219 kts | 98° |
| 2026-05-01 13:26 | 52.54236 | 4.63808 | 1987 ft | 218 kts | 97° |
| 2026-05-01 13:27 | 52.54119 | 4.66292 | 1984 ft | 218 kts | 98° |
| 2026-05-01 13:27 | 52.54001 | 4.68716 | 1977 ft | 205 kts | 101° |
| 2026-05-01 13:27 | 52.52460 | 4.71859 | 2005 ft | 174 kts | 151° |
| 2026-05-01 13:28 | 52.50203 | 4.72492 | 2019 ft | 175 kts | 194° |
| 2026-05-01 13:28 | 52.49010 | 4.72277 | 2011 ft | 173 kts | 178° |
| 2026-05-01 13:29 | 52.46685 | 4.72136 | 1985 ft | 156 kts | 181° |
| 2026-05-01 13:29 | 52.44556 | 4.71951 | 1693 ft | 152 kts | 181° |
| 2026-05-01 13:30 | 52.40576 | 4.71588 | 935 ft | 127 kts | 183° |
| 2026-05-01 13:31 | 52.38839 | 4.71416 | 533 ft | 124 kts | 180° |
| 2026-05-01 13:31 | 52.36259 | 4.71205 | 128 ft | 124 kts | 183° |
| 2026-05-01 13:32 | 52.34740 | 4.71061 | -2 ft | 58 kts | 183° |
| 2026-05-01 13:33 | 52.34224 | 4.71197 | -5 ft | 0 kts | 154° |
| 2026-05-01 13:34 | 52.34184 | 4.71228 | -4 ft | 6 kts | 155° |
| 2026-05-01 13:34 | 52.34075 | 4.71274 | -2 ft | 21 kts | 179° |
| 2026-05-01 13:35 | 52.33755 | 4.71245 | -2 ft | 23 kts | 185° |
| 2026-05-01 13:35 | 52.33604 | 4.71230 | -4 ft | 13 kts | 181° |
| 2026-05-01 13:35 | 52.33429 | 4.71219 | -3 ft | 14 kts | 183° |
| 2026-05-01 13:36 | 52.33320 | 4.71210 | -5 ft | 16 kts | 181° |
| 2026-05-01 13:36 | 52.33222 | 4.71263 | -1 ft | 14 kts | 139° |
| 2026-05-01 13:36 | 52.33148 | 4.71543 | -1 ft | 15 kts | 81° |
| 2026-05-01 13:37 | 52.33116 | 4.71702 | -1 ft | 16 kts | 127° |
| 2026-05-01 13:37 | 52.33044 | 4.71846 | -2 ft | 17 kts | 131° |
| 2026-05-01 13:37 | 52.32963 | 4.71994 | -3 ft | 18 kts | 132° |
| 2026-05-01 13:37 | 52.32880 | 4.72152 | -3 ft | 18 kts | 131° |
| 2026-05-01 13:38 | 52.32717 | 4.72448 | 0 ft | 18 kts | 131° |
| 2026-05-01 13:38 | 52.32630 | 4.72593 | -2 ft | 19 kts | 139° |
| 2026-05-01 13:38 | 52.32526 | 4.72739 | -3 ft | 19 kts | 138° |
| 2026-05-01 13:39 | 52.32430 | 4.72875 | -3 ft | 17 kts | 138° |
| 2026-05-01 13:39 | 52.32346 | 4.72994 | -3 ft | 15 kts | 140° |
| 2026-05-01 13:39 | 52.32272 | 4.73098 | -3 ft | 12 kts | 139° |
| 2026-05-01 13:39 | 52.32217 | 4.73174 | -1 ft | 9 kts | 140° |
| 2026-05-01 13:40 | 52.32143 | 4.73282 | 0 ft | 13 kts | 139° |
| 2026-05-01 13:40 | 52.32084 | 4.73374 | 1 ft | 10 kts | 123° |
| 2026-05-01 13:40 | 52.32058 | 4.73542 | 1 ft | 24 kts | 94° |
| 2026-05-01 13:40 | 52.32046 | 4.73805 | 0 ft | 15 kts | 94° |
| 2026-05-01 13:41 | 52.32038 | 4.73977 | -4 ft | 18 kts | 94° |
| 2026-05-01 13:41 | 52.32031 | 4.74136 | -6 ft | 10 kts | 108° |
| 2026-05-01 13:41 | 52.31983 | 4.74184 | -5 ft | 8 kts | 171° |
| 2026-05-01 13:41 | 52.31919 | 4.74182 | -5 ft | 12 kts | 182° |
| 2026-05-01 13:42 | 52.31802 | 4.74172 | -4 ft | 20 kts | 182° |
| 2026-05-01 13:42 | 52.31677 | 4.74162 | 0 ft | 16 kts | 184° |
| 2026-05-01 13:42 | 52.31564 | 4.74152 | -1 ft | 20 kts | 183° |
| 2026-05-01 13:42 | 52.31465 | 4.74144 | -2 ft | 11 kts | 184° |
| 2026-05-01 13:43 | 52.31401 | 4.74171 | -2 ft | 8 kts | 128° |
| 2026-05-01 13:43 | 52.31389 | 4.74284 | -2 ft | 16 kts | 89° |
| 2026-05-01 13:43 | 52.31397 | 4.74521 | -2 ft | 20 kts | 88° |
| 2026-05-01 13:43 | 52.31402 | 4.74729 | -2 ft | 18 kts | 87° |
| 2026-05-01 13:44 | 52.31410 | 4.74942 | -2 ft | 19 kts | 88° |
| 2026-05-01 13:44 | 52.31416 | 4.75143 | -2 ft | 13 kts | 87° |
| 2026-05-01 13:44 | 52.31421 | 4.75284 | -2 ft | 12 kts | 86° |
| 2026-05-01 13:44 | 52.31426 | 4.75407 | -2 ft | 10 kts | 96° |
| 2026-05-01 13:45 | 52.31381 | 4.75469 | -2 ft | 9 kts | 167° |
| 2026-05-01 13:45 | 52.31311 | 4.75480 | -2 ft | 12 kts | 176° |
| 2026-05-01 13:45 | 52.31256 | 4.75487 | -2 ft | 11 kts | 175° |
| 2026-05-01 13:45 | 52.31199 | 4.75496 | -2 ft | 0 kts | 177° |
| 2026-05-01 13:47 | 52.31191 | 4.75496 | -2 ft | 4 kts | 179° |
| 2026-05-01 13:47 | 52.31150 | 4.75496 | -2 ft | 5 kts | 187° |
| 2026-05-01 13:47 | 52.31119 | 4.75476 | -2 ft | 4 kts | 198° |
| 2026-05-01 13:47 | 52.31089 | 4.75476 | -2 ft | 4 kts | 165° |
| 2026-05-01 13:48 | 52.31074 | 4.75488 | -2 ft | 3 kts | 153° |
| 2026-05-01 13:48 | 52.31060 | 4.75500 | -2 ft | 2 kts | 152° |
| 2026-05-01 13:48 | 52.31054 | 4.75505 | -2 ft | 0 kts | 150° |
| 2026-05-01 13:48 | 52.31049 | 4.75510 | -2 ft | 1 kts | 150° |
| 2026-05-01 13:49 | 52.31048 | 4.75511 | -2 ft | 0 kts | 151° |